createdAt,value
2023-05-25T00:01:01.708Z,10.58
2023-05-25T00:06:06.003Z,10.50
2023-05-25T00:11:08.544Z,10.47
2023-05-25T00:16:11.168Z,10.58
2023-05-25T00:21:15.289Z,10.61
2023-05-25T00:26:17.679Z,10.57
2023-05-25T00:31:21.467Z,10.51
2023-05-25T00:36:24.411Z,10.51
2023-05-25T00:41:27.473Z,10.44
2023-05-25T00:46:30.283Z,10.42
2023-05-25T00:51:34.336Z,10.36
2023-05-25T00:56:36.826Z,10.40
2023-05-25T01:01:40.250Z,10.28
2023-05-25T01:06:43.298Z,10.28
2023-05-25T01:11:45.684Z,10.18
2023-05-25T01:16:48.238Z,10.25
2023-05-25T01:21:50.644Z,10.21
2023-05-25T01:26:55.754Z,10.22
2023-05-25T01:31:58.470Z,10.22
2023-05-25T01:37:01.289Z,10.26
2023-05-25T01:42:04.258Z,10.25
2023-05-25T01:47:06.652Z,10.32
2023-05-25T01:52:09.922Z,10.23
2023-05-25T01:57:12.585Z,10.29
2023-05-25T02:02:15.959Z,10.28
2023-05-25T02:07:18.356Z,10.40
2023-05-25T02:12:20.722Z,10.37
2023-05-25T02:17:23.128Z,10.30
2023-05-25T02:22:25.830Z,10.20
2023-05-25T02:27:28.220Z,10.28
2023-05-25T02:32:31.287Z,10.52
2023-05-25T02:37:33.895Z,10.62
2023-05-25T02:42:36.259Z,10.62
2023-05-25T02:47:38.709Z,10.68
2023-05-25T02:52:41.101Z,10.68
2023-05-25T02:57:43.510Z,10.74
2023-05-25T03:02:46.667Z,10.71
2023-05-25T03:07:49.141Z,10.82
2023-05-25T03:12:51.503Z,10.80
2023-05-25T03:17:56.806Z,10.89
2023-05-25T03:22:59.262Z,10.93
2023-05-25T03:28:01.608Z,10.96
2023-05-25T03:33:04.262Z,11.09
2023-05-25T03:38:06.666Z,11.07
2023-05-25T03:43:09.035Z,11.12
2023-05-25T03:48:11.656Z,11.21
2023-05-25T03:53:14.097Z,11.22
2023-05-25T03:58:18.440Z,11.23
2023-05-25T04:03:21.760Z,11.33
2023-05-25T04:08:24.989Z,11.26
2023-05-25T04:13:27.374Z,11.30
2023-05-25T04:18:29.698Z,11.33
2023-05-25T04:23:33.890Z,11.29
2023-05-25T04:28:37.018Z,11.18
2023-05-25T04:33:40.970Z,11.17
2023-05-25T04:38:47.960Z,11.34
2023-05-25T04:44:05.953Z,11.42
2023-05-25T04:49:10.658Z,11.55
2023-05-25T04:54:13.036Z,11.57
2023-05-25T04:59:15.591Z,11.59
2023-05-25T05:04:18.237Z,11.56
2023-05-25T05:09:20.581Z,11.74
2023-05-25T05:14:22.954Z,11.68
2023-05-25T05:19:25.698Z,11.72
2023-05-25T05:24:28.163Z,11.67
2023-05-25T05:29:30.516Z,11.78
2023-05-25T05:34:32.847Z,11.71
2023-05-25T05:39:35.197Z,11.76
2023-05-25T05:44:37.620Z,11.87
2023-05-25T05:49:40.152Z,11.79
2023-05-25T05:54:42.565Z,11.94
2023-05-25T05:59:44.965Z,11.93
2023-05-25T06:04:47.333Z,12.17
2023-05-25T06:09:49.644Z,12.25
2023-05-25T06:14:52.194Z,12.33
2023-05-25T06:19:54.610Z,12.58
2023-05-25T06:24:57.538Z,12.53
2023-05-25T06:29:59.866Z,12.57
2023-05-25T06:35:02.288Z,12.67
2023-05-25T06:40:05.159Z,12.73
2023-05-25T06:45:07.508Z,12.81
2023-05-25T06:50:09.985Z,12.81
2023-05-25T06:55:12.316Z,12.58
2023-05-25T07:00:14.735Z,12.84
2023-05-25T07:05:17.238Z,13.19
2023-05-25T07:10:19.646Z,12.90
2023-05-25T07:15:22.818Z,13.03
2023-05-25T07:20:25.279Z,13.07
2023-05-25T07:25:27.698Z,12.97
2023-05-25T07:30:30.005Z,12.99
2023-05-25T07:35:34.192Z,13.51
2023-05-25T07:40:36.630Z,13.48
2023-05-25T07:45:39.022Z,13.22
2023-05-25T07:50:41.446Z,13.80
2023-05-25T07:55:43.952Z,14.07
2023-05-25T08:00:46.741Z,14.25
2023-05-25T08:05:49.072Z,13.92
2023-05-25T08:10:51.570Z,14.02
2023-05-25T08:15:53.883Z,14.12
2023-05-25T08:20:56.356Z,14.25
2023-05-25T08:25:58.821Z,14.25
2023-05-25T08:31:01.331Z,13.96
2023-05-25T08:36:04.022Z,14.47
2023-05-25T08:41:06.507Z,14.51
2023-05-25T08:46:08.884Z,14.71
2023-05-25T08:51:11.955Z,15.31
2023-05-25T08:56:14.589Z,14.62
2023-05-25T09:01:16.928Z,14.70
2023-05-25T09:06:19.357Z,14.56
2023-05-25T09:11:36.121Z,15.30
2023-05-25T09:16:40.246Z,15.55
2023-05-25T09:21:43.732Z,15.44
2023-05-25T09:26:48.867Z,15.40
2023-05-25T09:31:51.343Z,15.57
2023-05-25T09:36:53.876Z,15.38
2023-05-25T09:41:56.495Z,16.13
2023-05-25T09:46:58.859Z,16.13
2023-05-25T09:52:01.202Z,16.51
2023-05-25T09:57:03.661Z,16.26
2023-05-25T10:02:06.224Z,16.06
2023-05-25T10:07:08.595Z,15.75
2023-05-25T10:12:10.977Z,16.38
2023-05-25T10:17:13.466Z,16.70
2023-05-25T10:22:16.331Z,16.19
2023-05-25T10:27:27.088Z,16.73
2023-05-25T10:32:30.308Z,17.75
2023-05-25T10:37:32.677Z,16.68
2023-05-25T10:42:36.909Z,16.75
2023-05-25T10:47:41.964Z,17.33
2023-05-25T10:52:44.518Z,16.73
2023-05-25T10:57:46.905Z,17.19
2023-05-25T11:02:49.308Z,17.30
2023-05-25T11:07:51.718Z,17.06
2023-05-25T11:12:54.073Z,17.17
2023-05-25T11:17:56.490Z,17.23
2023-05-25T11:22:58.882Z,17.73
2023-05-25T11:28:01.237Z,18.32
2023-05-25T11:33:03.806Z,18.41
2023-05-25T11:38:06.266Z,17.99
2023-05-25T11:43:09.134Z,17.80
2023-05-25T11:48:12.066Z,18.45
2023-05-25T11:53:15.554Z,18.17
2023-05-25T11:58:18.162Z,18.37
2023-05-25T12:03:21.083Z,18.13
2023-05-25T12:08:23.732Z,18.16
2023-05-25T12:13:26.628Z,18.66
2023-05-25T12:18:29.271Z,19.48
2023-05-25T12:23:31.695Z,19.71
2023-05-25T12:28:34.287Z,19.22
2023-05-25T12:33:37.035Z,18.43
2023-05-25T12:38:39.739Z,19.07
2023-05-25T12:43:43.966Z,19.21
2023-05-25T12:48:46.715Z,18.48
2023-05-25T12:53:49.232Z,18.66
2023-05-25T12:58:51.700Z,18.83
2023-05-25T13:03:54.524Z,18.80
2023-05-25T13:08:56.851Z,19.00
2023-05-25T13:13:59.287Z,18.71
2023-05-25T13:19:01.760Z,18.96
2023-05-25T13:24:04.113Z,19.25
2023-05-25T13:29:06.487Z,19.48
2023-05-25T13:34:08.821Z,19.58
2023-05-25T13:39:13.582Z,19.42
2023-05-25T13:44:17.785Z,19.40
2023-05-25T13:49:20.391Z,19.96
2023-05-25T13:54:23.555Z,19.81
2023-05-25T13:59:26.021Z,19.64
2023-05-25T14:04:28.792Z,20.22
2023-05-25T14:09:31.814Z,20.36
2023-05-25T14:14:34.161Z,20.57
2023-05-25T14:19:36.500Z,20.76
2023-05-25T14:24:38.920Z,20.57
2023-05-25T14:29:41.944Z,20.16
2023-05-25T14:34:44.761Z,20.52
2023-05-25T14:39:47.662Z,20.81
2023-05-25T14:44:50.035Z,21.03
2023-05-25T14:49:52.415Z,21.05
2023-05-25T14:54:54.784Z,21.04
2023-05-25T14:59:57.412Z,21.37
2023-05-25T15:05:00.221Z,21.50
2023-05-25T15:10:03.065Z,21.49
2023-05-25T15:15:05.760Z,21.47
2023-05-25T15:20:08.573Z,21.25
2023-05-25T15:25:12.561Z,21.24
2023-05-25T15:30:19.618Z,21.93
2023-05-25T15:35:22.441Z,21.00
2023-05-25T15:40:25.146Z,20.71
2023-05-25T15:45:27.944Z,20.84
2023-05-25T15:50:30.681Z,21.87
2023-05-25T15:55:33.479Z,21.45
2023-05-25T16:00:36.225Z,21.87
2023-05-25T16:05:38.813Z,21.51
2023-05-25T16:10:41.536Z,21.33
2023-05-25T16:15:44.577Z,20.58
2023-05-25T17:32:32.210Z,20.26
2023-05-25T17:37:34.596Z,20.51
2023-05-25T17:42:36.909Z,20.57
2023-05-25T17:47:40.551Z,20.35
2023-05-25T17:52:43.458Z,20.26
2023-05-25T17:57:48.364Z,20.05
2023-05-25T18:02:51.968Z,19.87
2023-05-25T18:07:54.507Z,19.77
2023-05-25T18:12:56.923Z,19.83
2023-05-25T18:18:00.623Z,19.77
2023-05-25T18:23:03.337Z,19.75
2023-05-25T18:28:05.804Z,19.61
2023-05-25T18:33:09.815Z,19.50
2023-05-25T18:38:12.298Z,19.30
2023-05-25T18:43:14.644Z,19.11
2023-05-25T18:48:18.916Z,18.94
2023-05-25T18:53:21.542Z,18.82
2023-05-25T18:58:24.076Z,18.67
2023-05-25T19:03:26.552Z,18.65
2023-05-25T19:08:29.204Z,18.53
2023-05-25T19:13:31.651Z,18.46
2023-05-25T19:18:34.080Z,18.43
2023-05-25T19:23:37.115Z,18.40
2023-05-25T19:28:39.501Z,18.26
2023-05-25T19:33:42.206Z,17.98
2023-05-25T19:38:44.625Z,17.95
2023-05-25T19:43:47.088Z,17.81
2023-05-25T19:48:49.536Z,17.74
2023-05-25T19:53:52.070Z,17.68
2023-05-25T19:58:54.521Z,17.71
2023-05-25T20:03:56.916Z,17.90
2023-05-25T20:08:59.266Z,17.68
2023-05-25T20:14:01.691Z,17.60
2023-05-25T20:19:07.457Z,17.53
2023-05-25T20:24:10.033Z,17.54
2023-05-25T20:29:12.356Z,17.53
2023-05-25T20:34:14.885Z,17.51
2023-05-25T20:39:17.221Z,17.49
2023-05-25T20:44:19.612Z,17.44
2023-05-25T20:49:24.366Z,17.40
2023-05-25T20:54:28.391Z,17.19
2023-05-25T20:59:31.682Z,16.88
2023-05-25T21:04:34.328Z,16.54
2023-05-25T21:09:36.959Z,16.21
2023-05-25T21:14:39.520Z,16.00
2023-05-25T21:19:41.844Z,15.71
2023-05-25T21:24:44.274Z,15.62
2023-05-25T21:29:46.836Z,15.58
2023-05-25T21:34:49.812Z,15.49
2023-05-25T21:39:52.218Z,15.30
2023-05-25T21:44:54.630Z,15.12
2023-05-25T21:49:57.246Z,14.99
2023-05-25T21:54:59.895Z,14.99
2023-05-25T22:00:02.232Z,14.81
2023-05-25T22:05:04.707Z,14.71
2023-05-25T22:10:07.121Z,14.65
2023-05-25T22:15:09.583Z,14.52
2023-05-25T22:20:12.248Z,14.37
2023-05-25T22:25:14.931Z,14.36
2023-05-25T22:30:17.756Z,14.29
2023-05-25T22:35:20.229Z,14.23
2023-05-25T22:40:22.652Z,14.16
2023-05-25T22:45:25.223Z,14.07
2023-05-25T22:50:28.114Z,14.00
2023-05-25T22:55:30.577Z,13.94
2023-05-25T23:00:33.020Z,13.81
2023-05-25T23:05:35.450Z,13.74
2023-05-25T23:10:38.311Z,13.65
2023-05-25T23:15:40.924Z,13.49
2023-05-25T23:20:43.914Z,13.35
2023-05-25T23:25:47.316Z,13.23
2023-05-25T23:30:50.327Z,13.17
2023-05-25T23:35:53.095Z,13.24
2023-05-25T23:40:55.899Z,13.19
2023-05-25T23:45:58.744Z,13.25
2023-05-25T23:51:01.389Z,13.27
2023-05-25T23:56:04.408Z,13.51
